createdAt,value
2017-08-14T00:00:29.728Z,13.00
2017-08-14T00:02:57.533Z,12.53
2017-08-14T00:05:25.408Z,13.13
2017-08-14T00:07:53.129Z,12.17
2017-08-14T00:10:21.092Z,12.63
2017-08-14T00:12:48.913Z,13.13
2017-08-14T00:15:16.730Z,13.20
2017-08-14T00:17:44.694Z,13.63
2017-08-14T00:20:12.609Z,12.40
2017-08-14T00:22:40.331Z,13.47
2017-08-14T00:25:08.295Z,12.37
2017-08-14T00:27:36.212Z,12.83
2017-08-14T00:30:03.867Z,12.53
2017-08-14T00:32:31.521Z,13.00
2017-08-14T00:34:59.399Z,14.20
2017-08-14T00:37:27.090Z,13.10
2017-08-14T00:39:54.898Z,12.33
2017-08-14T00:42:22.837Z,13.20
2017-08-14T00:44:50.664Z,12.90
2017-08-14T00:47:18.403Z,13.80
2017-08-14T00:49:46.175Z,12.80
2017-08-14T00:52:14.057Z,12.10
2017-08-14T00:54:41.701Z,10.70
2017-08-14T00:57:10.468Z,13.50
2017-08-14T00:59:38.269Z,13.07
2017-08-14T01:02:06.101Z,13.50
2017-08-14T01:04:33.846Z,12.67
2017-08-14T01:07:01.667Z,11.53
2017-08-14T01:09:29.318Z,12.63
2017-08-14T01:11:56.991Z,12.87
2017-08-14T01:14:24.653Z,13.10
2017-08-14T01:16:52.311Z,13.53
2017-08-14T01:19:20.074Z,14.40
2017-08-14T01:21:48.012Z,12.93
2017-08-14T01:24:15.781Z,12.37
2017-08-14T01:26:43.749Z,14.03
2017-08-14T01:29:11.487Z,12.53
2017-08-14T01:31:39.518Z,13.17
2017-08-14T01:34:07.249Z,13.20
2017-08-14T01:36:35.045Z,12.10
2017-08-14T01:39:02.913Z,13.10
2017-08-14T01:41:30.652Z,12.57
2017-08-14T01:43:58.646Z,13.13
2017-08-14T01:46:26.307Z,12.23
2017-08-14T01:48:54.169Z,11.73
2017-08-14T01:51:21.893Z,11.60
2017-08-14T01:53:49.698Z,13.70
2017-08-14T01:56:17.552Z,12.57
2017-08-14T01:58:45.439Z,13.20
2017-08-14T02:01:13.408Z,13.10
2017-08-14T02:03:41.225Z,15.13
2017-08-14T02:06:09.194Z,10.27
2017-08-14T02:08:36.905Z,12.70
2017-08-14T02:11:04.929Z,13.00
2017-08-14T02:13:33.820Z,11.53
2017-08-14T02:16:01.427Z,11.50
2017-08-14T02:18:29.330Z,11.70
2017-08-14T02:20:57.046Z,12.60
2017-08-14T02:23:24.991Z,11.87
2017-08-14T02:25:52.996Z,11.70
2017-08-14T02:28:20.846Z,11.70
2017-08-14T02:30:48.591Z,11.60
2017-08-14T02:33:16.359Z,12.43
2017-08-14T02:35:44.095Z,13.23
2017-08-14T02:38:12.126Z,12.47
2017-08-14T02:40:40.105Z,11.50
2017-08-14T02:43:08.067Z,11.50
2017-08-14T02:45:35.794Z,11.00
2017-08-14T02:48:03.783Z,11.07
2017-08-14T02:50:31.727Z,11.50
2017-08-14T02:52:59.693Z,11.57
2017-08-14T02:55:27.605Z,12.90
2017-08-14T02:57:55.452Z,10.97
2017-08-14T03:00:23.446Z,11.20
2017-08-14T03:02:51.410Z,11.23
2017-08-14T03:05:19.252Z,9.00
2017-08-14T03:07:46.938Z,8.53
2017-08-14T03:10:14.805Z,9.67
2017-08-14T03:12:42.875Z,9.80
2017-08-14T03:15:10.595Z,10.03
2017-08-14T03:17:38.617Z,8.70
2017-08-14T03:20:06.255Z,10.10
2017-08-14T03:22:33.999Z,10.27
2017-08-14T03:25:01.731Z,10.60
2017-08-14T03:27:29.342Z,11.57
2017-08-14T03:29:57.130Z,8.20
2017-08-14T03:32:24.997Z,8.70
2017-08-14T03:34:52.705Z,9.07
2017-08-14T03:37:20.673Z,8.40
2017-08-14T03:39:48.392Z,7.60
2017-08-14T03:42:16.234Z,9.30
2017-08-14T03:44:44.121Z,8.80
2017-08-14T03:47:12.194Z,8.30
2017-08-14T03:49:39.912Z,8.10
2017-08-14T03:52:07.878Z,7.30
2017-08-14T03:54:35.946Z,8.77
2017-08-14T03:57:03.764Z,8.60
2017-08-14T03:59:30.914Z,9.23
2017-08-14T04:01:58.848Z,8.90
2017-08-14T04:04:26.765Z,8.10
2017-08-14T04:06:54.719Z,7.93
2017-08-14T04:09:22.648Z,9.30
2017-08-14T04:11:50.657Z,7.80
2017-08-14T04:14:18.679Z,7.23
2017-08-14T04:16:46.748Z,8.53
2017-08-14T04:19:14.670Z,9.10
2017-08-14T04:21:42.382Z,7.83
2017-08-14T04:24:10.401Z,7.40
2017-08-14T04:26:38.117Z,7.87
2017-08-14T04:29:05.929Z,7.90
2017-08-14T04:31:33.945Z,6.93
2017-08-14T04:34:01.768Z,6.50
2017-08-14T04:36:29.635Z,7.93
2017-08-14T04:38:57.604Z,8.27
2017-08-14T04:41:25.369Z,8.53
2017-08-14T04:43:53.340Z,10.97
2017-08-14T04:46:21.375Z,8.77
2017-08-14T04:48:49.422Z,7.40
2017-08-14T04:51:17.349Z,10.87
2017-08-14T04:53:45.418Z,7.33
2017-08-14T04:56:13.271Z,7.13
2017-08-14T04:58:41.147Z,11.27
2017-08-14T05:01:09.207Z,8.60
2017-08-14T05:03:37.349Z,8.87
2017-08-14T05:06:05.312Z,7.73
2017-08-14T05:08:33.133Z,9.13
2017-08-14T05:11:01.099Z,8.27
2017-08-14T05:13:28.938Z,9.90
2017-08-14T05:15:56.984Z,9.23
2017-08-14T05:18:24.905Z,8.80
2017-08-14T05:20:52.619Z,10.60
2017-08-14T05:23:20.637Z,9.23
2017-08-14T05:25:48.351Z,8.80
2017-08-14T05:28:15.960Z,7.87
2017-08-14T05:30:43.829Z,8.33
2017-08-14T05:33:11.675Z,11.47
2017-08-14T05:35:39.563Z,8.67
2017-08-14T05:38:07.634Z,10.37
2017-08-14T05:40:35.350Z,9.03
2017-08-14T05:43:03.319Z,10.60
2017-08-14T05:45:31.235Z,8.87
2017-08-14T05:47:59.078Z,9.40
2017-08-14T05:50:26.821Z,8.10
2017-08-14T05:52:54.834Z,7.90
2017-08-14T05:55:22.679Z,7.90
2017-08-14T05:57:50.569Z,8.67
2017-08-14T06:00:19.459Z,7.50
2017-08-14T06:02:47.481Z,8.63
2017-08-14T06:05:15.400Z,8.93
2017-08-14T06:07:43.242Z,7.77
2017-08-14T06:10:10.982Z,9.30
2017-08-14T06:12:38.850Z,7.63
2017-08-14T06:15:06.865Z,7.33
2017-08-14T06:17:34.708Z,7.77
2017-08-14T06:20:02.397Z,6.30
2017-08-14T06:22:30.468Z,9.97
2017-08-14T06:24:58.185Z,8.07
2017-08-14T06:27:26.203Z,8.10
2017-08-14T06:29:53.861Z,8.50
2017-08-14T06:32:21.523Z,7.80
2017-08-14T06:34:49.259Z,6.90
2017-08-14T06:37:17.258Z,7.37
2017-08-14T06:39:45.328Z,7.60
2017-08-14T06:42:13.305Z,8.60
2017-08-14T06:44:41.268Z,8.60
2017-08-14T06:47:08.990Z,7.33
2017-08-14T06:49:36.903Z,9.00
2017-08-14T06:52:04.717Z,7.63
2017-08-14T06:54:32.712Z,6.53
2017-08-14T06:57:00.580Z,7.40
2017-08-14T06:59:28.299Z,6.93
2017-08-14T07:01:56.336Z,7.70
2017-08-14T07:04:24.202Z,7.77
2017-08-14T07:06:52.246Z,5.50
2017-08-14T07:09:19.936Z,6.53
2017-08-14T07:11:47.783Z,6.27
2017-08-14T07:14:15.626Z,5.67
2017-08-14T07:16:43.330Z,5.20
2017-08-14T07:19:11.063Z,5.77
2017-08-14T07:21:39.027Z,5.80
2017-08-14T07:24:06.933Z,4.43
2017-08-14T07:26:34.577Z,6.80
2017-08-14T07:29:02.253Z,5.30
2017-08-14T07:31:29.975Z,6.03
2017-08-14T07:33:57.990Z,4.40
2017-08-14T07:36:25.651Z,4.70
2017-08-14T07:38:53.378Z,4.33
2017-08-14T07:41:21.365Z,5.17
2017-08-14T07:43:49.253Z,5.20
2017-08-14T07:46:16.975Z,5.70
2017-08-14T07:48:44.890Z,6.30
2017-08-14T07:51:12.763Z,5.57
2017-08-14T07:53:40.516Z,5.00
2017-08-14T07:56:08.223Z,4.60
2017-08-14T07:58:36.210Z,5.20
2017-08-14T08:01:03.951Z,5.13
2017-08-14T08:03:31.773Z,5.20
2017-08-14T08:05:59.852Z,6.10
2017-08-14T08:08:27.514Z,5.03
2017-08-14T08:10:55.173Z,6.10
2017-08-14T08:13:23.274Z,5.90
2017-08-14T08:15:51.081Z,5.47
2017-08-14T08:18:18.979Z,4.33
2017-08-14T08:20:46.917Z,5.67
2017-08-14T08:23:14.908Z,5.30
2017-08-14T08:25:42.577Z,5.17
2017-08-14T08:28:10.496Z,5.57
2017-08-14T08:30:38.316Z,5.70
2017-08-14T08:33:06.153Z,6.10
2017-08-14T08:35:33.856Z,6.13
2017-08-14T08:38:01.915Z,5.07
2017-08-14T08:40:29.633Z,5.23
2017-08-14T08:42:57.622Z,5.07
2017-08-14T08:45:25.308Z,6.77
2017-08-14T08:47:53.033Z,5.13
2017-08-14T08:50:20.700Z,5.03
2017-08-14T08:52:48.304Z,6.10
2017-08-14T08:55:15.915Z,5.40
2017-08-14T08:57:43.571Z,5.80
2017-08-14T09:00:11.394Z,5.83
2017-08-14T09:02:39.147Z,6.40
2017-08-14T09:05:06.977Z,6.03
2017-08-14T09:07:34.881Z,5.40
2017-08-14T09:10:02.954Z,6.87
2017-08-14T09:12:30.615Z,5.60
2017-08-14T09:14:58.272Z,6.03
2017-08-14T09:17:25.986Z,6.20
2017-08-14T09:19:54.011Z,6.90
2017-08-14T09:22:21.672Z,5.97
2017-08-14T09:24:49.389Z,7.63
2017-08-14T09:27:17.357Z,6.10
2017-08-14T09:29:45.180Z,6.20
2017-08-14T09:32:12.997Z,6.00
2017-08-14T09:34:40.859Z,6.37
2017-08-14T09:37:08.875Z,6.20
2017-08-14T09:39:36.846Z,6.53
2017-08-14T09:42:04.607Z,5.47
2017-08-14T09:44:32.454Z,6.00
2017-08-14T09:47:00.341Z,6.13
2017-08-14T09:49:27.977Z,5.93
2017-08-14T09:51:55.664Z,5.37
2017-08-14T09:54:23.498Z,5.80
2017-08-14T09:56:51.241Z,5.93
2017-08-14T09:59:19.049Z,5.50
2017-08-14T10:01:46.923Z,5.13
2017-08-14T10:04:14.765Z,5.87
2017-08-14T10:06:42.511Z,5.93
2017-08-14T10:09:10.533Z,5.80
2017-08-14T10:11:38.543Z,6.13
2017-08-14T10:14:06.471Z,5.90
2017-08-14T10:16:34.105Z,6.77
2017-08-14T10:19:02.147Z,5.97
2017-08-14T10:21:29.857Z,6.70
2017-08-14T10:23:57.706Z,7.10
2017-08-14T10:26:25.502Z,5.80
2017-08-14T10:28:53.313Z,5.73
2017-08-14T10:31:21.326Z,6.30
2017-08-14T10:33:49.401Z,5.83
2017-08-14T10:36:17.273Z,6.57
2017-08-14T10:38:45.108Z,6.77
2017-08-14T10:41:12.854Z,6.70
2017-08-14T10:43:40.818Z,6.17
2017-08-14T10:46:08.527Z,6.37
2017-08-14T10:48:36.187Z,6.57
2017-08-14T10:51:04.245Z,6.60
2017-08-14T10:53:31.919Z,5.90
2017-08-14T10:55:59.779Z,6.43
2017-08-14T10:58:27.524Z,6.00
2017-08-14T11:00:55.513Z,6.13
2017-08-14T11:03:23.258Z,6.30
2017-08-14T11:05:50.851Z,6.00
2017-08-14T11:08:18.569Z,7.07
2017-08-14T11:10:46.584Z,5.40
2017-08-14T11:13:14.553Z,5.13
2017-08-14T11:15:42.524Z,5.63
2017-08-14T11:18:10.238Z,6.10
2017-08-14T11:20:37.822Z,5.93
2017-08-14T11:23:05.511Z,5.70
2017-08-14T11:25:33.338Z,6.03
2017-08-14T11:28:01.081Z,6.67
2017-08-14T11:30:28.975Z,6.03
2017-08-14T11:32:56.771Z,5.30
2017-08-14T11:35:24.601Z,6.20
2017-08-14T11:37:52.351Z,5.80
2017-08-14T11:40:20.218Z,5.83
2017-08-14T11:42:48.028Z,5.97
2017-08-14T11:45:15.901Z,5.33
2017-08-14T11:47:43.743Z,6.47
2017-08-14T11:50:11.634Z,5.67
2017-08-14T11:52:39.355Z,5.10
2017-08-14T11:55:07.368Z,5.60
2017-08-14T11:57:35.030Z,5.90
2017-08-14T12:00:02.880Z,6.20
2017-08-14T12:02:30.598Z,6.70
2017-08-14T12:04:58.412Z,6.50
2017-08-14T12:07:26.160Z,5.73
2017-08-14T12:09:54.025Z,5.90
2017-08-14T12:12:21.989Z,5.60
2017-08-14T12:14:49.894Z,5.70
2017-08-14T12:17:17.552Z,6.20
2017-08-14T12:19:45.392Z,5.37
2017-08-14T12:22:13.289Z,6.37
2017-08-14T12:24:41.362Z,5.40
2017-08-14T12:27:09.194Z,6.00
2017-08-14T12:29:37.094Z,4.60
2017-08-14T12:32:04.961Z,5.03
2017-08-14T12:34:32.801Z,5.27
2017-08-14T12:37:00.542Z,5.00
2017-08-14T12:39:28.356Z,5.43
2017-08-14T12:41:56.124Z,5.13
2017-08-14T12:44:23.944Z,5.43
2017-08-14T12:46:51.908Z,5.77
2017-08-14T12:49:19.800Z,4.70
2017-08-14T12:51:47.692Z,4.83
2017-08-14T12:54:15.353Z,5.13
2017-08-14T12:56:43.014Z,5.33
2017-08-14T12:59:10.636Z,4.83
2017-08-14T13:01:38.294Z,5.37
2017-08-14T13:04:05.956Z,5.00
2017-08-14T13:06:33.796Z,5.27
2017-08-14T13:09:01.536Z,5.50
2017-08-14T13:11:29.532Z,6.10
2017-08-14T13:13:57.375Z,4.80
2017-08-14T13:16:25.209Z,5.57
2017-08-14T13:18:53.035Z,4.90
2017-08-14T13:21:20.659Z,4.80
2017-08-14T13:23:48.283Z,5.50
2017-08-14T13:26:15.973Z,6.30
2017-08-14T13:28:43.643Z,5.77
2017-08-14T13:31:11.521Z,5.67
2017-08-14T13:33:39.263Z,6.17
2017-08-14T13:36:07.224Z,5.50
2017-08-14T13:38:35.297Z,5.80
2017-08-14T13:41:03.039Z,6.20
2017-08-14T13:43:30.835Z,5.00
2017-08-14T13:45:58.576Z,6.10
2017-08-14T13:48:26.294Z,6.80
2017-08-14T13:50:54.136Z,6.30
2017-08-14T13:53:22.110Z,5.37
2017-08-14T13:55:49.762Z,5.40
2017-08-14T13:58:17.432Z,8.73
2017-08-14T14:00:45.505Z,5.20
2017-08-14T14:03:13.221Z,5.50
2017-08-14T14:05:41.242Z,4.50
2017-08-14T14:08:09.107Z,5.30
2017-08-14T14:10:36.753Z,5.63
2017-08-14T14:13:04.635Z,5.30
2017-08-14T14:15:32.653Z,5.33
2017-08-14T14:18:00.548Z,5.07
2017-08-14T14:20:28.439Z,5.10
2017-08-14T14:22:56.505Z,5.13
2017-08-14T14:25:24.350Z,6.40
2017-08-14T14:27:52.028Z,5.90
2017-08-14T14:30:19.761Z,5.53
2017-08-14T14:32:47.775Z,5.40
2017-08-14T14:35:15.620Z,6.07
2017-08-14T14:37:43.301Z,5.50
2017-08-14T14:40:11.151Z,6.30
2017-08-14T14:42:38.820Z,6.37
2017-08-14T14:45:06.540Z,6.33
2017-08-14T14:47:34.571Z,5.13
2017-08-14T14:50:02.393Z,6.43
2017-08-14T14:52:30.198Z,5.73
2017-08-14T14:54:58.224Z,5.37
2017-08-14T14:57:26.022Z,6.70
2017-08-14T14:59:53.742Z,6.93
2017-08-14T15:02:21.761Z,11.83
2017-08-14T15:04:49.474Z,7.40
2017-08-14T15:07:17.501Z,6.37
2017-08-14T15:09:45.075Z,6.20
2017-08-14T15:12:12.800Z,6.00
2017-08-14T15:14:40.424Z,7.20
2017-08-14T15:17:08.354Z,7.80
2017-08-14T15:19:36.404Z,6.80
2017-08-14T15:22:04.087Z,6.53
2017-08-14T15:24:31.735Z,7.93
2017-08-14T15:26:59.405Z,5.93
2017-08-14T15:29:27.027Z,5.90
2017-08-14T15:31:54.726Z,6.00
2017-08-14T15:34:22.456Z,6.30
2017-08-14T15:36:50.264Z,6.57
2017-08-14T15:39:17.858Z,7.10
2017-08-14T15:41:45.589Z,6.20
2017-08-14T15:44:13.200Z,5.77
2017-08-14T15:46:40.911Z,6.00
2017-08-14T15:49:08.568Z,5.70
2017-08-14T15:51:36.201Z,6.70
2017-08-14T15:54:03.892Z,5.60
2017-08-14T15:56:31.554Z,6.13
2017-08-14T15:58:59.217Z,5.70
2017-08-14T16:01:27.047Z,6.93
2017-08-14T16:03:54.746Z,6.50
2017-08-14T16:06:22.603Z,6.37
2017-08-14T16:08:50.280Z,6.20
2017-08-14T16:11:17.920Z,7.60
2017-08-14T16:13:45.537Z,7.47
2017-08-14T16:16:13.379Z,7.77
2017-08-14T16:18:41.117Z,7.80
2017-08-14T16:21:09.205Z,6.67
2017-08-14T16:23:37.047Z,7.07
2017-08-14T16:26:04.714Z,6.03
2017-08-14T16:28:32.395Z,7.00
2017-08-14T16:31:00.009Z,6.50
2017-08-14T16:33:27.920Z,7.77
2017-08-14T16:35:55.777Z,7.27
2017-08-14T16:38:23.626Z,6.80
2017-08-14T16:40:51.524Z,7.10
2017-08-14T16:43:19.443Z,7.27
2017-08-14T16:45:47.251Z,7.83
2017-08-14T16:48:14.905Z,5.80
2017-08-14T16:50:42.641Z,8.43
2017-08-14T16:53:10.650Z,8.00
2017-08-14T16:55:38.306Z,7.33
2017-08-14T16:58:05.977Z,5.60
2017-08-14T17:00:33.811Z,6.40
2017-08-14T17:03:01.386Z,8.17
2017-08-14T17:05:29.245Z,7.67
2017-08-14T17:07:56.827Z,7.17
2017-08-14T17:10:24.484Z,9.20
2017-08-14T17:12:52.138Z,7.23
2017-08-14T17:15:19.759Z,7.80
2017-08-14T17:17:47.464Z,8.50
2017-08-14T17:20:15.086Z,6.50
2017-08-14T17:22:43.002Z,6.90
2017-08-14T17:25:10.731Z,7.50
2017-08-14T17:27:38.527Z,7.70
2017-08-14T17:30:06.195Z,6.70
2017-08-14T17:32:33.856Z,6.27
2017-08-14T17:35:02.341Z,6.50
2017-08-14T17:37:30.079Z,6.67
2017-08-14T17:39:57.981Z,7.70
2017-08-14T17:42:25.940Z,7.13
2017-08-14T17:44:53.795Z,7.63
2017-08-14T17:47:21.677Z,6.70
2017-08-14T17:49:49.581Z,7.17
2017-08-14T17:52:17.614Z,7.87
2017-08-14T17:54:45.663Z,7.67
2017-08-14T17:57:13.725Z,8.53
2017-08-14T17:59:41.425Z,8.70
2017-08-14T18:02:09.284Z,8.73
2017-08-14T18:04:37.007Z,9.30
2017-08-14T18:07:04.998Z,9.00
2017-08-14T18:09:32.743Z,9.17
2017-08-14T18:12:00.710Z,8.13
2017-08-14T18:14:28.530Z,8.33
2017-08-14T18:16:56.398Z,7.80
2017-08-14T18:19:24.309Z,8.67
2017-08-14T18:21:52.129Z,8.70
2017-08-14T18:24:19.930Z,8.70
2017-08-14T18:26:47.863Z,8.70
2017-08-14T18:29:15.450Z,8.97
2017-08-14T18:31:43.316Z,9.13
2017-08-14T18:34:11.353Z,9.83
2017-08-14T18:36:39.079Z,8.57
2017-08-14T18:39:07.054Z,9.37
2017-08-14T18:41:34.743Z,8.70
2017-08-14T18:44:02.615Z,8.60
2017-08-14T18:46:30.326Z,8.20
2017-08-14T18:48:58.346Z,8.70
2017-08-14T18:51:26.180Z,9.17
2017-08-14T18:53:53.865Z,7.93
2017-08-14T18:56:21.945Z,9.10
2017-08-14T18:58:49.812Z,9.73
2017-08-14T19:01:17.455Z,7.57
2017-08-14T19:03:45.195Z,9.40
2017-08-14T19:06:13.059Z,8.93
2017-08-14T19:08:42.622Z,8.50
2017-08-14T19:11:09.160Z,9.13
2017-08-14T19:13:36.913Z,7.97
2017-08-14T19:16:04.886Z,8.97
2017-08-14T19:18:33.103Z,7.33
2017-08-14T19:21:00.845Z,7.73
2017-08-14T19:23:28.684Z,7.97
2017-08-14T19:25:56.869Z,7.10
2017-08-14T19:28:26.341Z,8.10
2017-08-14T19:30:55.157Z,10.47
2017-08-14T19:33:24.888Z,8.63
2017-08-14T19:35:53.991Z,8.40
2017-08-14T19:38:22.974Z,7.27
2017-08-14T19:40:51.953Z,7.23
2017-08-14T19:43:20.327Z,7.57
2017-08-14T19:45:48.893Z,8.97
2017-08-14T19:48:17.133Z,6.93
2017-08-14T19:50:45.559Z,8.30
2017-08-14T19:53:13.686Z,7.60
2017-08-14T19:55:42.345Z,9.13
2017-08-14T19:58:11.708Z,7.20
2017-08-14T20:00:41.369Z,7.77
2017-08-14T20:03:10.119Z,7.83
2017-08-14T20:05:39.386Z,7.63
2017-08-14T20:08:08.553Z,7.60
2017-08-14T20:10:37.429Z,7.67
2017-08-14T20:13:06.492Z,7.70
2017-08-14T20:15:35.361Z,7.60
2017-08-14T20:18:03.049Z,8.13
2017-08-14T20:20:30.696Z,7.63
2017-08-14T20:22:58.328Z,8.47
2017-08-14T20:25:26.244Z,8.80
2017-08-14T20:27:54.173Z,8.67
2017-08-14T20:30:21.907Z,10.47
2017-08-14T20:32:49.645Z,7.10
2017-08-14T20:35:17.313Z,6.93
2017-08-14T20:37:44.969Z,8.23
2017-08-14T20:40:12.618Z,8.93
2017-08-14T20:42:40.431Z,8.47
2017-08-14T20:45:08.270Z,8.40
2017-08-14T20:47:36.135Z,8.43
2017-08-14T20:50:04.002Z,7.50
2017-08-14T20:52:31.760Z,9.63
2017-08-14T20:54:59.406Z,9.30
2017-08-14T20:57:27.251Z,7.93
2017-08-14T20:59:55.054Z,8.53
2017-08-14T21:02:22.968Z,9.50
2017-08-14T21:04:50.684Z,8.67
2017-08-14T21:07:18.333Z,8.90
2017-08-14T21:09:46.001Z,10.10
2017-08-14T21:12:13.732Z,8.87
2017-08-14T21:14:41.741Z,10.53
2017-08-14T21:17:09.382Z,8.07
2017-08-14T21:19:37.061Z,8.53
2017-08-14T21:22:04.724Z,9.30
2017-08-14T21:24:32.716Z,8.80
2017-08-14T21:27:00.310Z,10.37
2017-08-14T21:29:28.174Z,9.50
2017-08-14T21:31:55.981Z,10.23
2017-08-14T21:34:23.988Z,11.73
2017-08-14T21:36:51.721Z,11.03
2017-08-14T21:39:19.745Z,10.13
2017-08-14T21:41:47.343Z,13.20
2017-08-14T21:44:15.255Z,11.87
2017-08-14T21:46:43.095Z,13.57
2017-08-14T21:49:10.848Z,11.10
2017-08-14T21:51:38.720Z,11.47
2017-08-14T21:54:06.525Z,10.00
2017-08-14T21:56:34.461Z,10.10
2017-08-14T21:59:02.185Z,10.50
2017-08-14T22:01:29.997Z,9.47
2017-08-14T22:03:57.842Z,12.67
2017-08-14T22:06:25.704Z,10.27
2017-08-14T22:08:53.746Z,11.17
2017-08-14T22:11:21.495Z,10.47
2017-08-14T22:13:49.303Z,9.57
2017-08-14T22:16:17.148Z,11.70
2017-08-14T22:18:45.050Z,12.80
2017-08-14T22:21:12.757Z,10.33
2017-08-14T22:23:40.584Z,14.10
2017-08-14T22:26:08.167Z,13.73
2017-08-14T22:28:35.801Z,11.20
2017-08-14T22:31:03.964Z,13.63
2017-08-14T22:33:31.821Z,16.03
2017-08-14T22:35:59.688Z,14.57
2017-08-14T22:38:27.784Z,13.00
2017-08-14T22:40:55.853Z,15.77
2017-08-14T22:43:23.914Z,14.00
2017-08-14T22:45:51.996Z,11.87
2017-08-14T22:48:19.849Z,13.90
2017-08-14T22:50:47.589Z,12.67
2017-08-14T22:53:15.593Z,13.40
2017-08-14T22:55:43.262Z,13.37
2017-08-14T22:58:11.333Z,12.87
2017-08-14T23:00:39.219Z,13.60
2017-08-14T23:03:07.062Z,15.00
2017-08-14T23:05:35.092Z,13.83
2017-08-14T23:08:03.155Z,14.37
2017-08-14T23:10:31.186Z,14.57
2017-08-14T23:12:58.819Z,14.87
2017-08-14T23:15:26.802Z,14.00
2017-08-14T23:17:54.928Z,14.97
2017-08-14T23:20:22.918Z,14.57
2017-08-14T23:22:50.681Z,15.53
2017-08-14T23:25:18.478Z,14.73
2017-08-14T23:27:46.206Z,16.60
2017-08-14T23:30:14.205Z,14.70
2017-08-14T23:32:42.077Z,14.30
2017-08-14T23:35:09.989Z,13.70
2017-08-14T23:37:38.012Z,16.73
2017-08-14T23:40:06.053Z,16.40
2017-08-14T23:42:34.344Z,15.27
2017-08-14T23:45:02.228Z,15.10
2017-08-14T23:47:30.104Z,15.30
2017-08-14T23:49:58.543Z,15.03
2017-08-14T23:52:26.604Z,15.50
2017-08-14T23:54:54.720Z,16.80
2017-08-14T23:57:22.382Z,16.73
2017-08-14T23:59:50.257Z,17.60
